createdAt,value
2023-05-18T00:00:13.428Z,100135.36
2023-05-18T00:01:16.417Z,100133.70
2023-05-18T00:02:19.053Z,100131.00
2023-05-18T00:03:21.887Z,100137.39
2023-05-18T00:04:25.155Z,100137.20
2023-05-18T00:05:27.947Z,100142.78
2023-05-18T00:06:31.333Z,100133.84
2023-05-18T00:07:34.210Z,100133.84
2023-05-18T00:08:37.669Z,100135.69
2023-05-18T00:09:39.940Z,100132.18
2023-05-18T00:10:42.576Z,100131.33
2023-05-18T00:11:44.790Z,100130.48
2023-05-18T00:12:47.315Z,100135.87
2023-05-18T00:13:49.931Z,100131.48
2023-05-18T00:14:52.514Z,100137.72
2023-05-18T00:15:54.745Z,100144.11
2023-05-18T00:16:57.429Z,100134.36
2023-05-18T00:17:59.672Z,100143.44
2023-05-18T00:19:02.175Z,100134.51
2023-05-18T00:20:06.413Z,100139.89
2023-05-18T00:21:08.925Z,100138.38
2023-05-18T00:22:11.230Z,100138.38
2023-05-18T00:23:13.991Z,100150.00
2023-05-18T00:24:18.118Z,100138.56
2023-05-18T00:25:21.603Z,100136.72
2023-05-18T00:26:24.516Z,100140.41
2023-05-18T00:27:27.195Z,100141.38
2023-05-18T00:28:29.514Z,100142.41
2023-05-18T00:29:31.860Z,100133.47
2023-05-18T00:30:34.462Z,100135.31
2023-05-18T00:31:37.720Z,100139.86
2023-05-18T00:32:42.871Z,100138.19
2023-05-18T00:33:46.959Z,100138.19
2023-05-18T00:34:49.277Z,100135.64
2023-05-18T00:35:51.513Z,100136.49
2023-05-18T00:36:54.118Z,100137.34
2023-05-18T00:37:56.461Z,100145.57
2023-05-18T00:38:59.663Z,100140.36
2023-05-18T00:40:02.042Z,100134.98
2023-05-18T00:41:04.452Z,100135.97
2023-05-18T00:42:06.896Z,100138.67
2023-05-18T00:43:09.832Z,100135.16
2023-05-18T00:44:12.414Z,100142.54
2023-05-18T00:45:14.890Z,100139.00
2023-05-18T00:46:17.804Z,100140.88
2023-05-18T00:47:20.900Z,100139.17
2023-05-18T00:48:23.070Z,100135.63
2023-05-18T00:49:26.378Z,100133.13
2023-05-18T00:50:28.785Z,100134.97
2023-05-18T00:51:32.669Z,100134.97
2023-05-18T00:52:36.130Z,100138.66
2023-05-18T00:53:39.751Z,100137.98
2023-05-18T00:54:43.041Z,100136.29
2023-05-18T00:55:45.258Z,100132.78
2023-05-18T00:56:48.057Z,100141.01
2023-05-18T00:57:52.006Z,100131.27
2023-05-18T00:58:55.748Z,100132.26
2023-05-18T01:00:02.536Z,100137.64
2023-05-18T01:01:05.278Z,100127.87
2023-05-18T01:02:08.504Z,100137.79
2023-05-18T01:03:11.733Z,100132.59
2023-05-18T01:04:14.568Z,100127.20
2023-05-18T01:05:17.073Z,100130.89
2023-05-18T01:06:19.569Z,100134.61
2023-05-18T01:07:22.236Z,100130.22
2023-05-18T01:08:26.719Z,100137.30
2023-05-18T01:09:29.324Z,100127.52
2023-05-18T01:10:34.877Z,100128.52
2023-05-18T01:13:18.072Z,100136.29
2023-05-18T01:14:29.292Z,100126.19
2023-05-18T01:15:36.290Z,100124.48
2023-05-18T01:17:00.371Z,100129.88
2023-05-18T01:18:23.475Z,100125.48
2023-05-18T01:19:44.923Z,100122.13
2023-05-18T01:22:19.796Z,100122.98
2023-05-18T01:24:02.892Z,100125.98
2023-05-18T01:26:40.419Z,100128.52
2023-05-18T01:27:44.576Z,100127.31
2023-05-18T01:28:48.661Z,100128.34
2023-05-18T01:29:52.115Z,100131.02
2023-05-18T01:30:57.506Z,100135.56
2023-05-18T01:32:00.004Z,100139.25
2023-05-18T01:34:16.551Z,100137.42
2023-05-18T01:35:19.452Z,100141.45
2023-05-18T01:36:22.501Z,100141.59
2023-05-18T01:37:24.843Z,100136.20
2023-05-18T01:38:28.030Z,100148.00
2023-05-18T01:39:30.171Z,100144.46
2023-05-18T01:40:36.699Z,100149.84
2023-05-18T01:43:01.835Z,100147.18
2023-05-18T01:45:43.113Z,100145.80
2023-05-18T01:48:16.188Z,100151.69
2023-05-18T01:49:35.134Z,100145.92
2023-05-18T01:50:39.975Z,100147.77
2023-05-18T01:51:45.525Z,100147.91
2023-05-18T01:53:06.553Z,100152.30
2023-05-18T01:54:10.202Z,100158.67
2023-05-18T01:55:15.414Z,100151.45
2023-05-18T01:56:18.308Z,100147.09
2023-05-18T01:57:26.967Z,100157.15
2023-05-18T01:58:30.258Z,100155.30
2023-05-18T01:59:33.224Z,100159.02
2023-05-18T02:00:36.510Z,100157.33
2023-05-18T02:01:38.857Z,100162.88
2023-05-18T02:02:41.542Z,100158.50
2023-05-18T02:03:44.490Z,100161.33
2023-05-18T02:04:47.190Z,100164.19
2023-05-18T02:05:49.377Z,100159.80
2023-05-18T02:06:53.143Z,100159.80
2023-05-18T02:07:55.361Z,100162.67
2023-05-18T02:08:57.883Z,100170.74
2023-05-18T02:10:00.203Z,100164.69
2023-05-18T02:11:03.313Z,100164.69
2023-05-18T02:12:07.167Z,100169.22
2023-05-18T02:13:09.596Z,100177.29
2023-05-18T02:14:11.978Z,100168.37
2023-05-18T02:15:15.112Z,100171.06
2023-05-18T02:16:18.393Z,100173.92
2023-05-18T02:17:20.700Z,100171.38
2023-05-18T02:18:22.635Z,100172.22
2023-05-18T02:19:25.994Z,100167.84
2023-05-18T02:20:30.377Z,100171.38
2023-05-18T02:21:32.903Z,100170.70
2023-05-18T02:22:36.898Z,100169.85
2023-05-18T02:23:40.828Z,100169.00
2023-05-18T02:24:43.041Z,100172.83
2023-05-18T02:25:46.456Z,100167.45
2023-05-18T02:26:49.111Z,100168.30
2023-05-18T02:27:52.078Z,100163.91
2023-05-18T02:28:54.482Z,100167.45
2023-05-18T02:29:57.948Z,100171.83
2023-05-18T02:32:19.336Z,100171.59
2023-05-18T02:33:21.807Z,100172.83
2023-05-18T02:34:24.124Z,100172.83
2023-05-18T02:35:26.391Z,100179.91
2023-05-18T02:36:29.031Z,100171.83
2023-05-18T02:37:31.348Z,100175.52
2023-05-18T02:39:47.213Z,100179.66
2023-05-18T02:40:49.573Z,100182.73
2023-05-18T02:41:52.319Z,100187.13
2023-05-18T02:42:55.491Z,100184.44
2023-05-18T02:44:00.161Z,100188.97
2023-05-18T02:45:02.881Z,100190.66
2023-05-18T02:46:06.576Z,100189.81
2023-05-18T02:47:09.424Z,100194.34
2023-05-18T02:48:11.864Z,100200.58
2023-05-18T02:49:14.561Z,100195.20
2023-05-18T02:50:17.356Z,100194.52
2023-05-18T02:51:20.195Z,100198.88
2023-05-18T02:52:23.033Z,100193.67
2023-05-18T02:53:26.262Z,100195.51
2023-05-18T02:54:30.953Z,100192.99
2023-05-18T02:55:34.065Z,100195.83
2023-05-18T02:56:39.295Z,100195.83
2023-05-18T02:57:43.343Z,100193.13
2023-05-18T02:58:45.687Z,100197.84
2023-05-18T02:59:55.551Z,100200.66
2023-05-18T03:00:58.883Z,100191.92
2023-05-18T03:02:02.003Z,100195.63
2023-05-18T03:03:05.344Z,100189.41
2023-05-18T03:04:09.440Z,100190.39
2023-05-18T03:05:13.431Z,100192.23
2023-05-18T03:06:16.884Z,100195.09
2023-05-18T03:07:21.087Z,100191.73
2023-05-18T03:08:24.063Z,100198.77
2023-05-18T03:09:26.372Z,100196.94
2023-05-18T03:10:29.749Z,100196.09
2023-05-18T03:11:32.045Z,100198.77
2023-05-18T03:12:34.445Z,100201.33
2023-05-18T03:13:36.484Z,100198.46
2023-05-18T03:14:38.540Z,100203.70
2023-05-18T03:15:40.775Z,100199.98
2023-05-18T03:16:44.492Z,100206.05
2023-05-18T03:17:49.016Z,100209.58
2023-05-18T03:18:51.445Z,100203.22
2023-05-18T03:19:54.481Z,100204.20
2023-05-18T03:20:57.146Z,100211.28
2023-05-18T03:21:59.595Z,100216.66
2023-05-18T03:23:01.990Z,100209.58
2023-05-18T03:24:06.308Z,100213.13
2023-05-18T03:25:10.447Z,100215.81
2023-05-18T03:26:13.829Z,100206.89
2023-05-18T03:27:16.835Z,100206.05
2023-05-18T03:28:20.098Z,100212.27
2023-05-18T03:29:22.954Z,100206.89
2023-05-18T03:30:25.895Z,100212.27
2023-05-18T03:31:28.298Z,100211.28
2023-05-18T03:32:32.041Z,100211.42
2023-05-18T03:33:34.687Z,100213.13
2023-05-18T03:34:37.050Z,100210.44
2023-05-18T03:35:40.764Z,100208.59
2023-05-18T03:36:44.024Z,100207.61
2023-05-18T03:37:46.726Z,100211.96
2023-05-18T03:38:49.090Z,100213.80
2023-05-18T03:39:52.203Z,100215.67
2023-05-18T03:40:55.545Z,100205.73
2023-05-18T03:41:57.879Z,100215.67
2023-05-18T03:43:00.174Z,100211.28
2023-05-18T03:44:02.818Z,100219.18
2023-05-18T03:45:07.776Z,100212.81
2023-05-18T03:46:10.596Z,100210.97
2023-05-18T03:47:12.991Z,100214.52
2023-05-18T03:48:15.561Z,100212.50
2023-05-18T03:49:17.851Z,100213.34
2023-05-18T03:50:20.647Z,100215.02
2023-05-18T03:51:23.034Z,100218.41
2023-05-18T03:52:25.766Z,100219.23
2023-05-18T03:53:28.321Z,100226.17
2023-05-18T03:54:32.134Z,100220.79
2023-05-18T03:55:34.969Z,100219.80
2023-05-18T03:56:37.557Z,100218.81
2023-05-18T03:57:40.516Z,100219.31
2023-05-18T03:58:42.972Z,100220.70
2023-05-18T03:59:45.763Z,100213.83
2023-05-18T04:00:48.152Z,100214.86
2023-05-18T04:01:50.884Z,100218.30
2023-05-18T04:02:53.657Z,100219.86
2023-05-18T04:03:59.225Z,100226.95
2023-05-18T04:05:02.496Z,100218.44
2023-05-18T04:06:06.174Z,100215.11
2023-05-18T04:07:08.444Z,100224.27
2023-05-18T04:08:11.380Z,100222.63
2023-05-18T04:09:14.819Z,100224.16
2023-05-18T04:10:17.903Z,100221.14
2023-05-18T04:11:20.808Z,100226.02
2023-05-18T04:12:23.485Z,100218.96
2023-05-18T04:13:25.768Z,100222.98
2023-05-18T04:14:28.651Z,100222.67
2023-05-18T04:15:31.143Z,100228.23
2023-05-18T04:16:34.952Z,100225.33
2023-05-18T04:17:37.572Z,100229.38
2023-05-18T04:18:40.793Z,100225.98
2023-05-18T04:19:44.068Z,100228.02
2023-05-18T04:20:48.412Z,100231.06
2023-05-18T04:21:50.855Z,100236.14
2023-05-18T04:22:54.132Z,100237.50
2023-05-18T04:23:57.368Z,100235.30
2023-05-18T04:25:00.034Z,100239.37
2023-05-18T04:26:03.355Z,100235.49
2023-05-18T04:27:09.111Z,100238.53
2023-05-18T04:28:11.922Z,100237.14
2023-05-18T04:29:15.643Z,100242.86
2023-05-18T04:30:19.223Z,100239.50
2023-05-18T04:31:21.539Z,100236.47
2023-05-18T04:32:24.035Z,100240.02
2023-05-18T04:33:27.732Z,100237.81
2023-05-18T04:34:30.404Z,100241.69
2023-05-18T04:35:33.510Z,100243.05
2023-05-18T04:36:36.202Z,100241.69
2023-05-18T04:37:39.162Z,100246.59
2023-05-18T04:38:43.479Z,100249.62
2023-05-18T04:39:45.791Z,100243.89
2023-05-18T04:40:50.339Z,100248.58
2023-05-18T04:41:53.009Z,100250.45
2023-05-18T04:42:55.481Z,100252.45
2023-05-18T04:43:59.634Z,100253.30
2023-05-18T04:45:02.570Z,100253.30
2023-05-18T04:46:06.758Z,100256.84
2023-05-18T04:47:09.615Z,100261.38
2023-05-18T04:48:13.064Z,100256.99
2023-05-18T04:49:16.170Z,100252.63
2023-05-18T04:50:19.957Z,100261.38
2023-05-18T04:51:22.292Z,100257.84
2023-05-18T04:52:25.039Z,100258.69
2023-05-18T04:53:27.242Z,100258.69
2023-05-18T04:54:29.659Z,100252.45
2023-05-18T04:55:33.119Z,100256.17
2023-05-18T04:56:37.677Z,100257.35
2023-05-18T04:57:39.988Z,100256.83
2023-05-18T04:58:42.818Z,100258.16
2023-05-18T04:59:45.284Z,100252.77
2023-05-18T05:00:47.705Z,100265.42
2023-05-18T05:01:51.237Z,100262.73
2023-05-18T05:02:54.941Z,100262.73
2023-05-18T05:03:58.991Z,100266.23
2023-05-18T05:05:01.600Z,100272.16
2023-05-18T05:06:06.202Z,100266.44
2023-05-18T05:07:08.598Z,100263.41
2023-05-18T05:08:11.362Z,100262.91
2023-05-18T05:09:14.716Z,100266.79
2023-05-18T05:10:19.322Z,100263.95
2023-05-18T05:11:21.830Z,100267.84
2023-05-18T05:12:24.746Z,100275.63
2023-05-18T05:13:27.531Z,100269.70
2023-05-18T05:14:30.001Z,100272.55
2023-05-18T05:15:33.644Z,100274.53
2023-05-18T05:16:37.058Z,100264.67
2023-05-18T05:17:39.556Z,100269.31
2023-05-18T05:18:45.936Z,100262.27
2023-05-18T05:19:47.946Z,100264.35
2023-05-18T05:20:50.335Z,100261.37
2023-05-18T05:21:52.509Z,100260.40
2023-05-18T05:22:55.435Z,100256.41
2023-05-18T05:24:00.860Z,100257.67
2023-05-18T05:25:05.212Z,100263.13
2023-05-18T05:26:09.647Z,100259.98
2023-05-18T05:27:11.875Z,100273.75
2023-05-18T05:28:14.165Z,100266.02
2023-05-18T05:29:17.353Z,100271.80
2023-05-18T05:30:19.990Z,100272.81
2023-05-18T05:31:22.312Z,100270.69
2023-05-18T05:32:25.072Z,100265.80
2023-05-18T05:33:27.937Z,100270.78
2023-05-18T05:34:30.185Z,100271.52
2023-05-18T05:35:33.812Z,100268.48
2023-05-18T05:36:37.672Z,100265.27
2023-05-18T05:37:40.546Z,100263.11
2023-05-18T05:38:43.501Z,100267.19
2023-05-18T05:39:47.536Z,100270.41
2023-05-18T05:40:53.797Z,100264.86
2023-05-18T05:43:07.490Z,100267.27
2023-05-18T05:44:10.639Z,100266.81
2023-05-18T05:45:13.790Z,100266.66
2023-05-18T05:46:23.600Z,100269.05
2023-05-18T05:47:30.266Z,100270.57
2023-05-18T05:48:37.457Z,100263.95
2023-05-18T05:49:42.783Z,100271.77
2023-05-18T05:50:47.596Z,100266.00
2023-05-18T05:51:52.479Z,100268.16
2023-05-18T05:52:55.369Z,100266.75
2023-05-18T05:54:00.675Z,100273.50
2023-05-18T05:55:04.559Z,100279.39
2023-05-18T05:56:11.091Z,100274.44
2023-05-18T05:57:15.481Z,100270.11
2023-05-18T05:58:17.974Z,100276.84
2023-05-18T05:59:24.545Z,100271.43
2023-05-18T06:00:28.957Z,100273.34
2023-05-18T06:01:33.053Z,100278.78
2023-05-18T06:02:36.894Z,100272.74
2023-05-18T06:03:39.430Z,100270.86
2023-05-18T06:04:45.635Z,100277.37
2023-05-18T06:05:47.951Z,100279.90
2023-05-18T06:06:52.031Z,100280.30
2023-05-18T06:07:55.616Z,100278.23
2023-05-18T06:08:57.850Z,100279.27
2023-05-18T06:10:00.187Z,100281.78
2023-05-18T06:11:02.895Z,100281.75
2023-05-18T06:12:06.620Z,100274.40
2023-05-18T06:13:16.549Z,100280.88
2023-05-18T06:14:30.781Z,100281.91
2023-05-18T06:15:33.672Z,100284.19
2023-05-18T06:17:53.050Z,100283.72
2023-05-18T06:20:06.223Z,100283.80
2023-05-18T06:21:08.998Z,100283.52
2023-05-18T06:22:11.730Z,100282.44
2023-05-18T06:23:16.943Z,100284.92
2023-05-18T06:24:37.442Z,100285.50
2023-05-18T06:25:45.603Z,100286.30
2023-05-18T06:26:50.370Z,100283.55
2023-05-18T06:29:04.894Z,100287.69
2023-05-18T06:31:23.693Z,100287.17
2023-05-18T06:32:28.113Z,100290.19
2023-05-18T06:33:31.856Z,100282.43
2023-05-18T06:34:34.345Z,100284.91
2023-05-18T06:36:46.125Z,100282.81
2023-05-18T06:37:48.287Z,100290.23
2023-05-18T06:38:50.515Z,100293.33
2023-05-18T06:39:52.799Z,100292.87
2023-05-18T06:40:57.147Z,100285.95
2023-05-18T06:42:00.778Z,100283.84
2023-05-18T06:43:05.140Z,100292.16
2023-05-18T06:44:10.349Z,100287.32
2023-05-18T06:45:14.522Z,100288.55
2023-05-18T06:46:27.845Z,100284.53
2023-05-18T06:47:35.221Z,100290.31
2023-05-18T06:48:38.062Z,100293.41
2023-05-18T06:49:42.810Z,100291.92
2023-05-18T06:50:51.014Z,100288.95
2023-05-18T06:51:56.894Z,100284.75
2023-05-18T06:53:03.893Z,100282.24
2023-05-18T06:54:07.639Z,100285.13
2023-05-18T06:55:10.494Z,100282.42
2023-05-18T06:56:18.412Z,100286.83
2023-05-18T06:57:24.902Z,100283.73
2023-05-18T06:58:27.262Z,100285.85
2023-05-18T06:59:31.413Z,100288.65
2023-05-18T07:00:34.599Z,100287.06
2023-05-18T07:01:38.038Z,100287.11
2023-05-18T07:03:51.571Z,100289.70
2023-05-18T07:04:54.014Z,100281.94
2023-05-18T07:05:56.223Z,100294.53
2023-05-18T07:06:59.734Z,100290.83
2023-05-18T07:08:04.896Z,100294.23
2023-05-18T07:09:09.313Z,100289.68
2023-05-18T07:10:13.071Z,100287.69
2023-05-18T07:11:15.452Z,100284.18
2023-05-18T07:12:17.754Z,100290.30
2023-05-18T07:13:20.235Z,100284.92
2023-05-18T07:14:24.327Z,100290.38
2023-05-18T07:15:26.571Z,100278.70
2023-05-18T07:16:31.359Z,100281.47
2023-05-18T07:17:33.669Z,100291.34
2023-05-18T07:18:36.455Z,100291.34
2023-05-18T07:19:40.570Z,100287.83
2023-05-18T07:20:48.787Z,100293.12
2023-05-18T07:21:51.077Z,100294.82
2023-05-18T07:24:09.752Z,100282.34
2023-05-18T07:25:11.987Z,100279.41
2023-05-18T07:27:24.098Z,100283.44
2023-05-18T07:28:26.343Z,100284.91
2023-05-18T07:29:29.606Z,100302.30
2023-05-18T07:31:47.937Z,100293.80
2023-05-18T07:32:53.095Z,100300.06
2023-05-18T07:33:57.011Z,100292.11
2023-05-18T07:35:01.778Z,100295.04
2023-05-18T07:36:07.267Z,100299.86
2023-05-18T07:37:09.812Z,100292.95
2023-05-18T07:38:14.625Z,100292.31
2023-05-18T07:39:21.881Z,100292.75
2023-05-18T07:40:25.147Z,100290.23
2023-05-18T07:41:30.439Z,100293.38
2023-05-18T07:42:32.801Z,100300.07
2023-05-18T07:43:36.233Z,100292.55
2023-05-18T07:44:40.119Z,100291.28
2023-05-18T07:45:42.650Z,100300.92
2023-05-18T07:46:47.224Z,100297.98
2023-05-18T07:47:51.617Z,100291.26
2023-05-18T07:48:54.843Z,100302.59
2023-05-18T07:49:58.758Z,100299.48
2023-05-18T07:51:03.492Z,100290.03
2023-05-18T07:52:08.334Z,100301.37
2023-05-18T07:53:21.282Z,100294.65
2023-05-18T07:54:27.500Z,100295.88
2023-05-18T07:55:34.806Z,100288.55
2023-05-18T07:56:38.724Z,100298.19
2023-05-18T07:58:51.115Z,100293.55
2023-05-18T07:59:53.477Z,100301.11
2023-05-18T08:00:56.087Z,100292.51
2023-05-18T08:01:59.157Z,100303.22
2023-05-18T08:03:01.784Z,100301.11
2023-05-18T08:04:04.820Z,100304.45
2023-05-18T08:05:08.252Z,100295.01
2023-05-18T08:06:11.043Z,100292.92
2023-05-18T08:07:18.166Z,100293.31
2023-05-18T08:08:20.327Z,100294.77
2023-05-18T08:09:23.089Z,100296.04
2023-05-18T08:10:25.908Z,100303.80
2023-05-18T08:11:28.212Z,100301.69
2023-05-18T08:12:30.405Z,100296.84
2023-05-18T08:13:34.343Z,100297.45
2023-05-18T08:14:36.805Z,100293.69
2023-05-18T08:15:39.710Z,100299.77
2023-05-18T08:16:42.382Z,100298.49
2023-05-18T08:17:45.208Z,100295.37
2023-05-18T08:18:48.816Z,100299.78
2023-05-18T08:19:51.227Z,100289.48
2023-05-18T08:20:54.440Z,100296.62
2023-05-18T08:21:56.786Z,100293.67
2023-05-18T08:23:00.696Z,100296.20
2023-05-18T08:24:03.921Z,100289.47
2023-05-18T08:25:07.732Z,100295.34
2023-05-18T08:26:13.816Z,100289.42
2023-05-18T08:27:16.635Z,100294.68
2023-05-18T08:29:30.138Z,100293.34
2023-05-18T08:30:32.390Z,100297.39
2023-05-18T08:31:37.900Z,100295.28
2023-05-18T08:32:40.464Z,100293.16
2023-05-18T08:33:43.303Z,100305.53
2023-05-18T08:34:49.075Z,100297.34
2023-05-18T08:35:51.452Z,100280.77
2023-05-18T08:36:53.763Z,100296.91
2023-05-18T08:37:55.971Z,100291.22
2023-05-18T08:38:58.680Z,100285.56
2023-05-18T08:40:01.197Z,100295.44
2023-05-18T08:41:22.040Z,100288.90
2023-05-18T08:42:41.507Z,100284.28
2023-05-18T08:43:38.517Z,100283.23
2023-05-18T08:44:46.722Z,100283.00
2023-05-18T08:47:09.863Z,100291.12
2023-05-18T08:48:12.810Z,100280.69
2023-05-18T08:49:17.679Z,100289.48
2023-05-18T08:50:23.452Z,100277.72
2023-05-18T08:51:28.328Z,100281.30
2023-05-18T08:52:35.161Z,100276.67
2023-05-18T08:53:38.153Z,100282.75
2023-05-18T08:54:41.932Z,100289.05
2023-05-18T08:55:45.711Z,100281.70
2023-05-18T08:56:48.974Z,100272.67
2023-05-18T08:57:54.507Z,100277.28
2023-05-18T08:58:57.958Z,100262.59
2023-05-18T09:00:02.227Z,100268.05
2023-05-18T09:01:04.751Z,100275.16
2023-05-18T09:02:08.898Z,100265.08
2023-05-18T09:03:11.795Z,100273.28
2023-05-18T09:04:14.725Z,100273.28
2023-05-18T09:05:20.551Z,100260.70
2023-05-18T09:06:24.244Z,100269.09
2023-05-18T09:07:26.550Z,100270.14
2023-05-18T09:08:29.093Z,100275.60
2023-05-18T09:09:31.613Z,100265.75
2023-05-18T09:10:35.424Z,100282.34
2023-05-18T09:11:37.870Z,100268.69
2023-05-18T09:12:42.530Z,100261.57
2023-05-18T09:13:45.440Z,100266.39
2023-05-18T09:14:48.505Z,100265.34
2023-05-18T09:15:50.721Z,100268.92
2023-05-18T09:16:53.431Z,100272.49
2023-05-18T09:17:56.258Z,100269.53
2023-05-18T09:18:59.922Z,100270.61
2023-05-18T09:20:03.321Z,100272.05
2023-05-18T09:21:06.446Z,100267.41
2023-05-18T09:22:08.802Z,100261.95
2023-05-18T09:23:14.051Z,100270.98
2023-05-18T09:24:17.147Z,100263.63
2023-05-18T09:25:22.004Z,100263.63
2023-05-18T09:26:24.483Z,100261.95
2023-05-18T09:27:27.636Z,100258.17
2023-05-18T09:28:41.246Z,100259.21
2023-05-18T09:29:54.180Z,100267.41
2023-05-18T09:30:57.869Z,100269.53
2023-05-18T09:32:04.972Z,100254.42
2023-05-18T09:34:23.393Z,100256.05
2023-05-18T09:35:25.625Z,100253.41
2023-05-18T09:36:28.582Z,100260.98
2023-05-18T09:38:46.412Z,100259.04
2023-05-18T09:40:02.329Z,100271.73
2023-05-18T09:41:09.275Z,100257.44
2023-05-18T09:42:11.915Z,100255.78
2023-05-18T09:43:16.691Z,100258.52
2023-05-18T09:44:23.733Z,100247.59
2023-05-18T09:45:26.333Z,100254.09
2023-05-18T09:46:34.987Z,100245.91
2023-05-18T09:47:37.656Z,100251.59
2023-05-18T09:48:47.344Z,100249.91
2023-05-18T09:49:49.510Z,100248.25
2023-05-18T09:50:52.018Z,100247.61
2023-05-18T09:51:54.226Z,100254.95
2023-05-18T09:52:56.315Z,100253.30
2023-05-18T09:53:59.296Z,100255.19
2023-05-18T09:55:01.634Z,100253.50
2023-05-18T09:56:06.134Z,100258.96
2023-05-18T09:57:11.238Z,100251.01
2023-05-18T09:58:13.851Z,100243.86
2023-05-18T09:59:16.407Z,100241.36
2023-05-18T10:00:21.684Z,100247.86
2023-05-18T10:01:25.546Z,100233.37
2023-05-18T10:02:28.000Z,100237.18
2023-05-18T10:04:45.442Z,100223.05
2023-05-18T10:05:48.200Z,100226.69
2023-05-18T10:06:51.056Z,100231.92
2023-05-18T10:07:55.452Z,100228.34
2023-05-18T10:08:58.447Z,100222.08
2023-05-18T10:10:02.286Z,100225.23
2023-05-18T10:11:05.626Z,100227.97
2023-05-18T10:12:17.062Z,100222.71
2023-05-18T10:13:19.686Z,100235.55
2023-05-18T10:14:25.756Z,100243.73
2023-05-18T10:15:28.003Z,100238.27
2023-05-18T10:16:31.525Z,100233.86
2023-05-18T10:17:34.389Z,100237.86
2023-05-18T10:18:39.045Z,100238.06
2023-05-18T10:19:42.260Z,100232.59
2023-05-18T10:20:47.410Z,100233.64
2023-05-18T10:21:52.256Z,100233.00
2023-05-18T10:22:56.034Z,100240.14
2023-05-18T10:24:00.717Z,100231.34
2023-05-18T10:25:06.219Z,100236.19
2023-05-18T10:26:10.507Z,100224.43
2023-05-18T10:27:14.205Z,100228.20
2023-05-18T10:29:38.279Z,100228.59
2023-05-18T10:30:41.024Z,100220.45
2023-05-18T10:31:45.460Z,100233.05
2023-05-18T10:32:48.609Z,100231.97
2023-05-18T10:33:52.916Z,100231.36
2023-05-18T10:34:59.791Z,100236.81
2023-05-18T10:36:06.728Z,100232.44
2023-05-18T10:42:23.338Z,100211.47
2023-05-18T10:43:27.561Z,100224.09
2023-05-18T10:45:47.608Z,100214.63
2023-05-18T10:46:50.018Z,100222.86
2023-05-18T10:49:03.788Z,100217.36
2023-05-18T10:50:08.794Z,100222.87
2023-05-18T10:51:12.707Z,100226.86
2023-05-18T10:52:20.819Z,100214.50
2023-05-18T10:53:25.801Z,100225.83
2023-05-18T10:54:28.538Z,100226.67
2023-05-18T10:55:31.137Z,100230.44
2023-05-18T10:56:34.725Z,100227.94
2023-05-18T10:59:19.347Z,100217.64
2023-05-18T11:00:22.383Z,100222.07
2023-05-18T11:01:25.483Z,100220.37
2023-05-18T11:03:44.805Z,100218.07
2023-05-18T11:04:50.190Z,100214.31
2023-05-18T11:06:07.891Z,100209.93
2023-05-18T11:07:14.656Z,100210.97
2023-05-18T11:08:27.555Z,100207.40
2023-05-18T11:09:30.758Z,100205.75
2023-05-18T11:10:43.807Z,100206.55
2023-05-18T11:11:53.958Z,100200.48
2023-05-18T11:13:00.834Z,100205.30
2023-05-18T11:14:03.177Z,100203.84
2023-05-18T11:15:07.030Z,100212.02
2023-05-18T11:16:37.979Z,100213.05
2023-05-18T11:17:43.602Z,100213.05
2023-05-18T11:18:49.657Z,100207.59
2023-05-18T11:20:08.180Z,100211.36
2023-05-18T11:21:39.694Z,100212.44
2023-05-18T11:22:49.091Z,100199.84
2023-05-18T11:25:29.247Z,100213.47
2023-05-18T11:26:32.024Z,100205.10
2023-05-18T11:27:34.600Z,100213.28
2023-05-18T11:28:44.766Z,100209.70
2023-05-18T11:29:47.835Z,100206.98
2023-05-18T11:30:52.122Z,100204.48
2023-05-18T11:31:56.389Z,100199.23
2023-05-18T11:33:17.454Z,100200.30
2023-05-18T11:34:43.617Z,100204.91
2023-05-18T11:36:01.668Z,100199.45
2023-05-18T11:38:23.833Z,100190.82
2023-05-18T11:39:29.423Z,100200.30
2023-05-18T11:40:50.402Z,100203.22
2023-05-18T11:42:02.114Z,100201.56
2023-05-18T11:43:04.468Z,100202.60
2023-05-18T11:44:15.352Z,100204.28
2023-05-18T11:46:33.281Z,100194.39
2023-05-18T11:47:37.094Z,100198.61
2023-05-18T11:48:41.275Z,100199.65
2023-05-18T11:50:57.657Z,100199.65
2023-05-18T11:52:15.907Z,100192.13
2023-05-18T11:53:18.490Z,100203.02
2023-05-18T11:54:24.508Z,100198.19
2023-05-18T11:55:30.948Z,100196.31
2023-05-18T11:56:33.426Z,100200.91
2023-05-18T11:57:39.438Z,100189.17
2023-05-18T11:58:41.921Z,100197.15
2023-05-18T11:59:46.038Z,100190.02
2023-05-18T12:00:54.336Z,100194.42
2023-05-18T12:02:01.034Z,100199.65
2023-05-18T12:03:05.028Z,100189.78
2023-05-18T12:04:07.572Z,100188.97
2023-05-18T12:05:12.268Z,100193.35
2023-05-18T12:06:15.667Z,100185.17
2023-05-18T12:07:19.965Z,100193.16
2023-05-18T12:08:28.341Z,100188.75
2023-05-18T12:09:38.716Z,100192.31
2023-05-18T12:10:43.950Z,100193.16
2023-05-18T12:11:46.321Z,100195.05
2023-05-18T12:12:53.283Z,100191.24
2023-05-18T12:13:59.575Z,100189.59
2023-05-18T12:15:06.026Z,100190.44
2023-05-18T12:16:13.268Z,100199.23
2023-05-18T12:17:15.815Z,100191.89
2023-05-18T12:18:18.916Z,100191.89
2023-05-18T12:19:24.569Z,100180.98
2023-05-18T12:20:32.044Z,100183.72
2023-05-18T12:21:41.524Z,100187.48
2023-05-18T12:22:50.149Z,100194.62
2023-05-18T12:24:00.459Z,100192.73
2023-05-18T12:25:02.838Z,100192.51
2023-05-18T12:27:15.813Z,100188.73
2023-05-18T12:28:18.168Z,100192.09
2023-05-18T12:29:21.004Z,100189.36
2023-05-18T12:30:25.820Z,100185.59
2023-05-18T12:31:28.242Z,100189.78
2023-05-18T12:32:30.491Z,100191.86
2023-05-18T12:33:34.267Z,100189.97
2023-05-18T12:34:38.097Z,100186.41
2023-05-18T12:35:40.640Z,100185.37
2023-05-18T12:36:51.476Z,100186.20
2023-05-18T12:37:54.884Z,100189.78
2023-05-18T12:38:57.575Z,100188.73
2023-05-18T12:40:01.147Z,100188.55
2023-05-18T12:42:14.180Z,100183.05
2023-05-18T12:43:16.711Z,100180.98
2023-05-18T12:44:19.016Z,100190.00
2023-05-18T12:45:23.774Z,100187.05
2023-05-18T12:46:26.340Z,100190.39
2023-05-18T12:47:32.257Z,100178.45
2023-05-18T12:50:11.108Z,100187.22
2023-05-18T12:51:19.437Z,100184.08
2023-05-18T12:52:21.656Z,100181.36
2023-05-18T12:53:24.933Z,100188.50
2023-05-18T12:54:28.713Z,100180.31
2023-05-18T12:59:00.275Z,100186.39
2023-05-18T13:00:03.872Z,100186.39
2023-05-18T13:01:08.080Z,100184.27
2023-05-18T13:02:15.236Z,100175.28
2023-05-18T13:03:19.699Z,100177.16
2023-05-18T13:04:22.556Z,100182.00
2023-05-18T13:05:25.115Z,100175.70
2023-05-18T13:06:28.059Z,100170.45
2023-05-18T13:07:30.488Z,100171.52
2023-05-18T13:08:34.569Z,100175.06
2023-05-18T13:09:41.410Z,100170.45
2023-05-18T13:10:44.624Z,100166.07